Prestatyn, United Kingdom
Current Conditions -  °F | °C
As of 9:20 PM on Tuesday 25 Nov 2014 (Local Time) from EGNR Reporting Station
Few Clouds Few Clouds  
Wind Chill: 41°   Ceiling: Unl
Heat Index: 41°   Visibility: 6mi
Dew Point: 41°   Wind: 3mph
Humidity: 100%   Direction: 320°NW
Pressure: 30.12"   Gusts: NA
Location:  53.34°N, 3.41°W
Report Text: EGNR 252120Z 32003KT 9000 FEW025 05/05 Q1020
Loading
Personal Weather Stations






























Interactive Weather Map New forecast layout! Learn more

10-Day Weather Forecast

Advertisements
Track Severe Weather on mobile